createdAt,value
2023-02-05T00:00:03.370Z,941.35
2023-02-05T00:05:02.899Z,941.41
2023-02-05T00:10:03.104Z,941.49
2023-02-05T00:15:02.982Z,941.55
2023-02-05T00:20:03.460Z,941.59
2023-02-05T00:25:03.064Z,941.66
2023-02-05T00:30:03.223Z,941.72
2023-02-05T00:35:04.012Z,941.76
2023-02-05T00:40:03.175Z,941.84
2023-02-05T00:45:02.950Z,941.88
2023-02-05T00:50:03.147Z,941.96
2023-02-05T00:55:03.563Z,942.04
2023-02-05T01:00:03.701Z,942.11
2023-02-05T01:05:03.141Z,942.19
2023-02-05T01:10:03.076Z,942.23
2023-02-05T01:15:03.085Z,942.33
2023-02-05T01:20:03.206Z,942.37
2023-02-05T01:25:03.007Z,942.35
2023-02-05T01:30:03.026Z,942.45
2023-02-05T01:35:02.895Z,942.43
2023-02-05T01:40:03.142Z,942.53
2023-02-05T01:45:03.110Z,942.55
2023-02-05T01:50:08.039Z,942.57
2023-02-05T01:55:02.974Z,942.57
2023-02-05T02:00:03.081Z,942.59
2023-02-05T02:05:03.013Z,942.59
2023-02-05T02:10:03.211Z,942.59
2023-02-05T02:15:02.910Z,942.55
2023-02-05T02:20:03.221Z,942.55
2023-02-05T02:25:02.902Z,942.51
2023-02-05T02:30:03.082Z,942.45
2023-02-05T02:35:03.556Z,942.35
2023-02-05T02:40:03.345Z,942.31
2023-02-05T02:45:02.853Z,942.25
2023-02-05T02:50:03.200Z,942.21
2023-02-05T02:55:02.915Z,942.19
2023-02-05T03:00:02.986Z,942.11
2023-02-05T03:05:02.963Z,942.10
2023-02-05T03:10:03.037Z,942.10
2023-02-05T03:15:02.981Z,942.06
2023-02-05T03:20:03.098Z,942.06
2023-02-05T03:25:02.911Z,942.02
2023-02-05T03:30:03.036Z,942.02
2023-02-05T03:35:02.960Z,941.98
2023-02-05T03:40:03.106Z,942.00
2023-02-05T03:45:02.889Z,942.04
2023-02-05T03:50:03.047Z,942.02
2023-02-05T03:55:03.049Z,941.98
2023-02-05T04:00:03.012Z,941.98
2023-02-05T04:05:02.889Z,942.00
2023-02-05T04:10:03.713Z,942.00
2023-02-05T04:15:02.899Z,941.92
2023-02-05T04:20:03.183Z,941.88
2023-02-05T04:25:03.042Z,941.80
2023-02-05T04:30:03.037Z,941.80
2023-02-05T04:35:02.897Z,941.76
2023-02-05T04:40:03.063Z,941.74
2023-02-05T04:45:03.087Z,941.74
2023-02-05T04:50:03.030Z,941.70
2023-02-05T04:55:02.847Z,941.68
2023-02-05T05:00:03.092Z,941.64
2023-02-05T05:05:02.906Z,941.63
2023-02-05T05:10:03.023Z,941.57
2023-02-05T05:15:02.908Z,941.55
2023-02-05T05:20:03.145Z,941.51
2023-02-05T05:25:02.872Z,941.51
2023-02-05T05:30:03.248Z,941.51
2023-02-05T05:35:02.989Z,941.49
2023-02-05T05:40:03.084Z,941.43
2023-02-05T05:45:02.935Z,941.45
2023-02-05T05:50:02.987Z,941.47
2023-02-05T05:55:03.111Z,941.51
2023-02-05T06:00:07.978Z,941.47
2023-02-05T06:05:02.932Z,941.43
2023-02-05T06:10:03.059Z,941.39
2023-02-05T06:15:02.950Z,941.37
2023-02-05T06:20:03.030Z,941.31
2023-02-05T06:25:02.935Z,941.31
2023-02-05T06:30:03.068Z,941.31
2023-02-05T06:35:02.822Z,941.31
2023-02-05T06:40:03.004Z,941.35
2023-02-05T06:45:02.871Z,941.33
2023-02-05T06:50:03.266Z,941.31
2023-02-05T06:55:02.854Z,941.31
2023-02-05T07:00:03.022Z,941.29
2023-02-05T07:05:03.011Z,941.29
2023-02-05T07:10:03.106Z,941.31
2023-02-05T07:15:02.870Z,941.27
2023-02-05T07:20:03.090Z,941.31
2023-02-05T07:25:04.522Z,941.31
2023-02-05T07:30:03.026Z,941.35
2023-02-05T07:35:03.078Z,941.35
2023-02-05T07:40:02.991Z,941.39
2023-02-05T07:45:02.886Z,941.43
2023-02-05T07:50:03.004Z,941.41
2023-02-05T07:55:02.930Z,941.43
2023-02-05T08:00:02.969Z,941.45
2023-02-05T08:05:02.891Z,941.59
2023-02-05T08:10:03.116Z,941.57
2023-02-05T08:15:02.857Z,941.59
2023-02-05T08:20:03.110Z,941.57
2023-02-05T08:25:02.918Z,941.59
2023-02-05T08:30:02.973Z,941.63
2023-02-05T08:35:02.940Z,941.61
2023-02-05T08:40:03.056Z,941.63
2023-02-05T08:45:02.841Z,941.61
2023-02-05T08:50:03.046Z,941.66
2023-02-05T08:55:02.924Z,941.70
2023-02-05T09:00:02.933Z,941.72
2023-02-05T09:05:08.724Z,941.68
2023-02-05T09:10:03.003Z,941.74
2023-02-05T09:15:02.875Z,941.70
2023-02-05T09:20:02.973Z,941.76
2023-02-05T09:25:02.988Z,941.78
2023-02-05T09:30:02.985Z,941.86
2023-02-05T09:35:02.949Z,941.90
2023-02-05T09:40:20.784Z,941.96
2023-02-05T09:45:03.029Z,942.02
2023-02-05T09:50:03.113Z,942.08
2023-02-05T09:55:02.897Z,942.13
2023-02-05T10:00:03.055Z,942.15
2023-02-05T10:05:04.035Z,942.23
2023-02-05T10:10:03.003Z,942.31
2023-02-05T10:15:02.860Z,942.37
2023-02-05T10:20:03.021Z,942.37
2023-02-05T10:25:03.003Z,942.35
2023-02-05T10:30:02.987Z,942.39
2023-02-05T10:35:02.876Z,942.51
2023-02-05T10:40:02.949Z,942.57
2023-02-05T10:45:02.858Z,942.59
2023-02-05T10:50:02.972Z,942.65
2023-02-05T10:55:02.990Z,942.72
2023-02-05T11:00:03.068Z,942.74
2023-02-05T11:05:02.909Z,942.76
2023-02-05T11:10:03.218Z,942.72
2023-02-05T11:15:02.909Z,942.76
2023-02-05T11:20:03.147Z,942.84
2023-02-05T11:25:02.981Z,942.88
2023-02-05T11:30:03.257Z,942.86
2023-02-05T11:35:03.953Z,942.90
2023-02-05T11:40:03.310Z,942.88
2023-02-05T11:45:02.999Z,942.92
2023-02-05T11:50:03.002Z,942.94
2023-02-05T11:55:02.975Z,942.92
2023-02-05T12:00:03.021Z,942.98
2023-02-05T12:05:02.944Z,942.98
2023-02-05T12:10:03.023Z,943.02
2023-02-05T12:15:02.928Z,943.04
2023-02-05T12:20:02.999Z,943.08
2023-02-05T12:25:03.060Z,943.12
2023-02-05T12:30:03.057Z,943.10
2023-02-05T12:35:02.861Z,943.14
2023-02-05T12:40:03.237Z,943.16
2023-02-05T12:45:02.953Z,943.18
2023-02-05T12:50:02.963Z,943.16
2023-02-05T12:55:03.028Z,943.20
2023-02-05T13:00:03.053Z,943.18
2023-02-05T13:05:02.962Z,943.23
2023-02-05T13:10:03.085Z,943.31
2023-02-05T13:15:02.982Z,943.39
2023-02-05T13:20:03.087Z,943.43
2023-02-05T13:25:03.015Z,943.39
2023-02-05T13:30:04.887Z,943.33
2023-02-05T13:35:02.967Z,943.35
2023-02-05T13:40:03.270Z,943.31
2023-02-05T13:45:02.897Z,943.35
2023-02-05T13:50:03.050Z,943.33
2023-02-05T13:55:02.974Z,943.25
2023-02-05T14:00:03.363Z,943.20
2023-02-05T14:05:02.864Z,943.06
2023-02-05T14:10:03.056Z,943.06
2023-02-05T14:15:02.963Z,943.02
2023-02-05T14:20:03.116Z,943.02
2023-02-05T14:25:02.987Z,943.06
2023-02-05T14:30:03.112Z,943.08
2023-02-05T14:35:02.869Z,942.98
2023-02-05T14:40:03.079Z,942.92
2023-02-05T14:45:02.935Z,942.90
2023-02-05T14:50:03.089Z,942.80
2023-02-05T14:55:02.883Z,942.76
2023-02-05T15:00:03.206Z,942.70
2023-02-05T15:05:03.005Z,942.66
2023-02-05T15:10:03.088Z,942.66
2023-02-05T15:15:02.986Z,942.63
2023-02-05T15:20:03.134Z,942.61
2023-02-05T15:25:02.958Z,942.57
2023-02-05T15:30:03.039Z,942.49
2023-02-05T15:35:02.919Z,942.43
2023-02-05T15:40:03.150Z,942.41
2023-02-05T15:45:02.860Z,942.31
2023-02-05T15:50:03.076Z,942.35
2023-02-05T15:55:02.984Z,942.35
2023-02-05T16:00:03.143Z,942.29
2023-02-05T16:05:02.961Z,942.23
2023-02-05T16:10:03.176Z,942.13
2023-02-05T16:15:02.945Z,942.11
2023-02-05T16:20:03.002Z,942.11
2023-02-05T16:25:02.868Z,942.06
2023-02-05T16:30:03.110Z,942.02
2023-02-05T16:35:03.001Z,941.90
2023-02-05T16:40:02.849Z,941.78
2023-02-05T16:45:03.009Z,941.74
2023-02-05T16:50:03.014Z,941.68
2023-02-05T16:55:02.941Z,941.66
2023-02-05T17:00:03.156Z,941.66
2023-02-05T17:05:03.077Z,941.64
2023-02-05T17:10:03.258Z,941.59
2023-02-05T17:15:03.035Z,941.57
2023-02-05T17:20:03.088Z,941.49
2023-02-05T17:25:02.900Z,941.43
2023-02-05T17:30:03.197Z,941.37
2023-02-05T17:35:02.926Z,941.29
2023-02-05T17:40:03.247Z,941.21
2023-02-05T17:45:02.983Z,941.17
2023-02-05T17:50:03.068Z,941.13
2023-02-05T17:55:03.047Z,941.11
2023-02-05T18:00:03.331Z,941.04
2023-02-05T18:05:02.891Z,940.92
2023-02-05T18:10:03.118Z,940.80
2023-02-05T18:15:03.897Z,940.80
2023-02-05T18:20:03.046Z,940.68
2023-02-05T18:25:02.956Z,940.72
2023-02-05T18:30:03.016Z,940.74
2023-02-05T18:35:04.112Z,940.70
2023-02-05T18:40:03.012Z,940.63
2023-02-05T18:45:02.982Z,940.55
2023-02-05T18:50:02.976Z,940.45
2023-02-05T18:55:02.864Z,940.37
2023-02-05T19:00:03.114Z,940.39
2023-02-05T19:05:02.973Z,940.33
2023-02-05T19:10:03.004Z,940.25
2023-02-05T19:15:02.999Z,940.23
2023-02-05T19:20:02.958Z,940.19
2023-02-05T19:25:02.949Z,940.11
2023-02-05T19:30:03.195Z,940.06
2023-02-05T19:35:03.020Z,940.00
2023-02-05T19:40:03.087Z,939.98
2023-02-05T19:45:03.178Z,939.96
2023-02-05T19:50:04.227Z,939.96
2023-02-05T19:55:03.134Z,939.92
2023-02-05T20:00:03.180Z,939.90
2023-02-05T20:05:03.021Z,939.92
2023-02-05T20:10:03.081Z,939.88
2023-02-05T20:15:02.989Z,939.86
2023-02-05T20:20:12.553Z,939.86
2023-02-05T20:25:03.182Z,939.86
2023-02-05T20:30:03.019Z,939.84
2023-02-05T20:35:02.904Z,939.82
2023-02-05T20:40:03.021Z,939.82
2023-02-05T20:45:03.050Z,939.86
2023-02-05T20:50:03.002Z,939.84
2023-02-05T20:55:03.004Z,939.82
2023-02-05T21:00:03.079Z,939.82
2023-02-05T21:05:03.938Z,939.74
2023-02-05T21:10:03.115Z,939.76
2023-02-05T21:15:03.984Z,939.76
2023-02-05T21:20:04.750Z,939.72
2023-02-05T21:25:02.912Z,939.74
2023-02-05T21:30:03.142Z,939.74
2023-02-05T21:35:02.879Z,939.74
2023-02-05T21:40:09.054Z,939.78
2023-02-05T21:45:02.852Z,939.82
2023-02-05T21:50:03.146Z,939.84
2023-02-05T21:55:02.899Z,939.88
2023-02-05T22:00:03.218Z,939.92
2023-02-05T22:05:03.085Z,939.88
2023-02-05T22:10:02.982Z,939.90
2023-02-05T22:15:03.055Z,939.94
2023-02-05T22:20:02.997Z,939.96
2023-02-05T22:25:02.917Z,939.96
2023-02-05T22:30:03.041Z,939.96
2023-02-05T22:35:02.907Z,939.94
2023-02-05T22:40:03.018Z,939.96
2023-02-05T22:45:02.827Z,940.00
2023-02-05T22:50:03.046Z,940.00
2023-02-05T22:55:02.978Z,940.00
2023-02-05T23:00:03.220Z,940.02
2023-02-05T23:05:03.269Z,940.08
2023-02-05T23:10:03.053Z,940.09
2023-02-05T23:15:02.885Z,940.08
2023-02-05T23:20:03.140Z,940.11
2023-02-05T23:25:02.856Z,940.11
2023-02-05T23:30:03.103Z,940.19
2023-02-05T23:35:02.905Z,940.21
2023-02-05T23:40:03.205Z,940.23
2023-02-05T23:45:02.937Z,940.21
2023-02-05T23:50:03.059Z,940.19
2023-02-05T23:55:02.914Z,940.15
